Time;durP1;ratioP1;P1;durP2;ratioP2;P2;SDS_P1;SDS_P2;PMS_P1;PMS_P2;Temp;Humidity;BMP_temperature;BMP_pressure;BME280_temperature;BME280_humidity;BME280_pressure;Samples;Min_cycle;Max_cycle;Signal;HPM_P1;HPM_P2
2021/05/25 00:01:09;;;;;;;1.92;1.63;;;11.10;99.90;;;;;;5033584;28;20128;-81
2021/05/25 00:03:36;;;;;;;2.78;1.38;;;11.10;99.90;;;;;;5039139;28;20049;-82
2021/05/25 00:06:02;;;;;;;2.78;1.75;;;11.10;99.90;;;;;;5040558;28;20045;-81
2021/05/25 00:08:29;;;;;;;4.28;1.73;;;11.10;99.90;;;;;;5037631;28;20045;-79
2021/05/25 00:10:55;;;;;;;2.00;1.75;;;11.10;99.90;;;;;;5036323;28;20140;-79
2021/05/25 00:13:22;;;;;;;3.20;1.67;;;11.10;99.90;;;;;;5035305;28;20085;-80
2021/05/25 00:15:53;;;;;;;3.10;1.60;;;11.10;99.90;;;;;;5036125;28;20195;-80
2021/05/25 00:18:20;;;;;;;1.45;1.25;;;11.00;99.90;;;;;;5036452;28;20049;-79
2021/05/25 00:20:47;;;;;;;3.88;1.52;;;11.00;99.90;;;;;;5034719;28;20073;-79
2021/05/25 00:23:14;;;;;;;1.50;1.20;;;11.10;99.90;;;;;;5032744;28;20088;-78
2021/05/25 00:25:40;;;;;;;2.88;1.35;;;11.10;99.90;;;;;;5032150;28;20132;-76
2021/05/25 00:28:06;;;;;;;2.72;1.48;;;11.10;99.90;;;;;;5031883;28;20565;-75
2021/05/25 00:30:33;;;;;;;1.63;1.42;;;11.10;99.90;;;;;;5032149;28;20088;-77
2021/05/25 00:32:59;;;;;;;2.40;1.58;;;11.10;99.90;;;;;;5031872;28;20045;-76
2021/05/25 00:35:28;;;;;;;1.85;1.60;;;11.00;99.90;;;;;;5031604;28;20092;-78
2021/05/25 00:37:55;;;;;;;1.73;1.17;;;11.00;99.90;;;;;;5031798;28;20057;-77
2021/05/25 00:40:21;;;;;;;1.95;1.23;;;11.00;99.90;;;;;;5032459;28;20115;-76
2021/05/25 00:42:48;;;;;;;2.05;1.33;;;11.00;99.90;;;;;;5037288;28;20052;-78
2021/05/25 00:45:16;;;;;;;2.35;1.23;;;11.10;99.90;;;;;;5041751;28;20046;-79
2021/05/25 00:47:43;;;;;;;1.48;1.25;;;11.10;99.90;;;;;;5041452;28;20085;-79
2021/05/25 00:50:13;;;;;;;1.38;1.23;;;11.10;99.90;;;;;;5042912;28;20069;-80
2021/05/25 00:52:42;;;;;;;1.77;1.20;;;11.10;99.90;;;;;;5039106;28;20081;-81
2021/05/25 00:55:11;;;;;;;0.95;0.82;;;11.10;99.90;;;;;;5036324;28;20179;-80
2021/05/25 00:57:38;;;;;;;0.77;0.77;;;11.10;99.90;;;;;;5033715;28;20136;-80
2021/05/25 01:00:06;;;;;;;2.05;1.23;;;11.10;99.90;;;;;;5034040;28;20132;-80
2021/05/25 01:02:33;;;;;;;2.95;1.33;;;11.10;99.90;;;;;;5033259;28;20092;-78
2021/05/25 01:05:00;;;;;;;1.20;1.10;;;11.10;99.90;;;;;;5033665;28;20049;-79
2021/05/25 01:07:27;;;;;;;2.53;1.35;;;11.00;99.90;;;;;;5032905;28;20041;-79
2021/05/25 01:09:56;;;;;;;1.95;1.20;;;10.90;99.90;;;;;;5033512;28;20045;-79
2021/05/25 01:12:24;;;;;;;1.75;1.40;;;10.80;99.90;;;;;;5033598;28;20144;-80
2021/05/25 01:14:55;;;;;;;3.10;1.30;;;10.80;99.90;;;;;;5035734;28;20132;-79
2021/05/25 01:17:21;;;;;;;2.17;1.20;;;10.70;99.90;;;;;;5037307;28;20579;-78
2021/05/25 01:19:48;;;;;;;1.90;1.40;;;10.70;99.90;;;;;;5037758;28;20163;-78
2021/05/25 01:22:15;;;;;;;3.72;1.45;;;10.70;99.90;;;;;;5037142;28;20132;-77
2021/05/25 01:24:42;;;;;;;2.33;1.52;;;10.60;99.90;;;;;;5036940;28;20136;-78
2021/05/25 01:27:08;;;;;;;1.73;1.20;;;10.60;99.90;;;;;;5037733;28;20077;-79
2021/05/25 01:29:37;;;;;;;1.80;1.25;;;10.60;99.90;;;;;;5054764;28;20084;-80
2021/05/25 01:32:04;;;;;;;1.63;0.85;;;10.50;99.90;;;;;;5056204;28;20061;-78
2021/05/25 01:34:31;;;;;;;1.40;1.17;;;10.50;99.90;;;;;;5055745;28;20068;-78
2021/05/25 01:36:57;;;;;;;2.55;1.50;;;10.40;99.90;;;;;;5044271;28;20049;-77
2021/05/25 01:39:25;;;;;;;1.17;1.05;;;10.30;99.90;;;;;;5037521;28;20141;-79
2021/05/25 01:41:52;;;;;;;0.70;0.70;;;10.30;99.90;;;;;;5038974;28;20140;-79
2021/05/25 01:44:18;;;;;;;1.88;1.23;;;10.30;99.90;;;;;;5038723;28;20056;-78
2021/05/25 01:46:46;;;;;;;2.38;1.45;;;10.20;99.90;;;;;;5038956;28;20141;-78
2021/05/25 01:49:14;;;;;;;2.75;1.23;;;10.20;99.90;;;;;;5038289;28;20081;-76
2021/05/25 01:51:45;;;;;;;1.58;1.38;;;10.10;99.90;;;;;;5040000;28;20046;-79
2021/05/25 01:54:12;;;;;;;1.35;1.17;;;10.10;99.90;;;;;;5039358;28;20132;-81
2021/05/25 01:56:39;;;;;;;2.83;1.30;;;10.10;99.90;;;;;;5040760;28;20088;-80
2021/05/25 01:59:05;;;;;;;1.00;1.00;;;10.10;99.90;;;;;;5040443;28;20175;-79
2021/05/25 02:01:32;;;;;;;2.60;1.15;;;10.20;99.90;;;;;;5041491;28;20085;-81
2021/05/25 02:03:58;;;;;;;1.52;1.05;;;10.20;99.90;;;;;;5037279;28;20132;-80
2021/05/25 02:06:24;;;;;;;1.90;1.35;;;10.20;99.90;;;;;;5038972;28;20053;-79
2021/05/25 02:08:51;;;;;;;2.30;1.00;;;10.20;99.90;;;;;;5037762;28;20055;-80
2021/05/25 02:11:18;;;;;;;2.33;1.33;;;10.20;99.90;;;;;;5038605;28;20080;-80
2021/05/25 02:13:45;;;;;;;2.13;0.90;;;10.30;99.90;;;;;;5039641;28;20140;-79
2021/05/25 02:16:13;;;;;;;1.15;1.05;;;10.20;99.90;;;;;;5040509;28;20112;-80
2021/05/25 02:18:43;;;;;;;1.35;0.90;;;10.20;99.90;;;;;;5040223;28;20057;-80
2021/05/25 02:21:11;;;;;;;1.52;0.80;;;10.30;99.90;;;;;;5040883;28;20064;-80
2021/05/25 02:23:37;;;;;;;1.27;0.95;;;10.30;99.90;;;;;;5039732;28;20151;-79
2021/05/25 02:26:05;;;;;;;2.00;1.27;;;10.30;99.90;;;;;;5039552;28;20069;-80
2021/05/25 02:28:32;;;;;;;3.30;1.02;;;10.20;99.90;;;;;;5039366;28;20133;-79
2021/05/25 02:31:00;;;;;;;1.35;1.00;;;10.30;99.90;;;;;;5041228;28;20081;-78
2021/05/25 02:33:27;;;;;;;1.55;1.27;;;10.20;99.90;;;;;;5039280;28;20085;-80
2021/05/25 02:35:55;;;;;;;4.45;1.40;;;10.20;99.90;;;;;;5039166;28;20259;-79
2021/05/25 02:38:21;;;;;;;1.83;1.20;;;10.10;99.90;;;;;;5039294;28;20530;-79
2021/05/25 02:40:49;;;;;;;2.60;1.42;;;10.10;99.90;;;;;;5040234;28;20148;-80
2021/05/25 02:43:17;;;;;;;3.08;1.67;;;10.00;99.90;;;;;;5042454;28;20133;-80
2021/05/25 02:45:44;;;;;;;4.03;1.73;;;10.00;99.90;;;;;;5042928;28;20060;-80
2021/05/25 02:48:11;;;;;;;3.20;1.55;;;10.00;99.90;;;;;;5040853;28;20088;-80
2021/05/25 02:50:39;;;;;;;3.08;1.70;;;9.90;99.90;;;;;;5039801;28;20081;-82
2021/05/25 02:53:06;;;;;;;1.83;1.40;;;9.90;99.90;;;;;;5035679;28;20128;-78
2021/05/25 02:55:34;;;;;;;1.73;1.50;;;9.80;99.90;;;;;;5036188;28;20449;-79
2021/05/25 02:58:01;;;;;;;2.67;1.42;;;9.90;99.90;;;;;;5036980;28;20143;-79
2021/05/25 03:00:29;;;;;;;2.50;1.67;;;9.90;99.90;;;;;;5037197;28;20111;-80
2021/05/25 03:02:57;;;;;;;2.63;1.30;;;9.90;99.90;;;;;;5040101;28;20084;-78
2021/05/25 03:05:25;;;;;;;1.30;1.20;;;9.80;99.90;;;;;;5040959;28;20125;-79
2021/05/25 03:07:52;;;;;;;1.40;1.30;;;9.80;99.90;;;;;;5040733;28;20064;-80
2021/05/25 03:10:20;;;;;;;2.22;1.77;;;9.80;99.90;;;;;;5039361;28;20107;-77
2021/05/25 03:12:47;;;;;;;1.40;1.30;;;9.80;99.90;;;;;;5036053;28;20199;-79
2021/05/25 03:15:16;;;;;;;3.97;1.67;;;9.80;99.90;;;;;;5035846;28;20132;-80
2021/05/25 03:17:42;;;;;;;2.83;2.05;;;9.80;99.90;;;;;;5036788;28;20434;-79
2021/05/25 03:20:13;;;;;;;2.33;1.65;;;9.80;99.90;;;;;;5037137;28;20136;-79
2021/05/25 03:22:40;;;;;;;2.75;1.88;;;9.80;99.90;;;;;;5037764;28;20191;-78
2021/05/25 03:25:09;;;;;;;2.08;1.38;;;9.80;99.90;;;;;;5038279;28;20095;-78
2021/05/25 03:27:36;;;;;;;3.13;1.33;;;9.80;99.90;;;;;;5038137;28;20050;-80
2021/05/25 03:30:03;;;;;;;3.80;1.77;;;9.80;99.90;;;;;;5037388;28;20136;-79
2021/05/25 03:32:29;;;;;;;2.08;1.70;;;9.80;99.90;;;;;;5036876;28;20131;-79
2021/05/25 03:34:55;;;;;;;3.13;1.67;;;9.80;99.90;;;;;;5035456;28;20049;-79
2021/05/25 03:37:22;;;;;;;2.22;1.73;;;9.80;99.90;;;;;;5038720;28;20109;-79
2021/05/25 03:39:49;;;;;;;5.57;2.25;;;9.70;99.90;;;;;;5042347;28;20077;-78
2021/05/25 03:42:15;;;;;;;4.90;1.95;;;9.70;99.90;;;;;;5045507;28;20057;-79
2021/05/25 03:44:42;;;;;;;2.63;1.90;;;9.80;99.90;;;;;;5043815;28;20041;-79
2021/05/25 03:47:08;;;;;;;3.08;2.40;;;9.90;99.90;;;;;;5042130;28;20060;-79
2021/05/25 03:49:34;;;;;;;3.08;2.13;;;9.90;99.90;;;;;;5041325;28;20569;-80
2021/05/25 03:52:01;;;;;;;4.95;2.03;;;9.90;99.90;;;;;;5034832;28;20129;-78
2021/05/25 03:54:31;;;;;;;1.75;1.52;;;9.90;99.90;;;;;;5033915;28;20080;-79
2021/05/25 03:57:05;;;;;;;5.45;2.08;;;9.90;99.90;;;;;;5034071;28;20041;-80
2021/05/25 03:59:31;;;;;;;3.03;2.15;;;9.90;99.90;;;;;;5036662;28;20136;-79
2021/05/25 04:01:58;;;;;;;3.58;1.95;;;9.90;99.90;;;;;;5035966;28;20076;-78
2021/05/25 04:04:25;;;;;;;9.93;2.42;;;9.90;99.90;;;;;;5033911;28;20179;-79
2021/05/25 04:06:54;;;;;;;6.18;2.72;;;10.00;99.90;;;;;;5038325;28;20092;-80
2021/05/25 04:09:20;;;;;;;4.30;2.10;;;10.00;99.90;;;;;;5039075;28;20049;-80
2021/05/25 04:11:47;;;;;;;5.85;2.22;;;10.00;99.90;;;;;;5039274;28;20053;-80
2021/05/25 04:14:15;;;;;;;6.65;2.70;;;10.00;99.90;;;;;;5037992;28;20136;-80
2021/05/25 04:16:41;;;;;;;3.20;2.08;;;10.00;99.90;;;;;;5037108;28;20136;-79
2021/05/25 04:19:08;;;;;;;2.72;2.22;;;10.00;99.90;;;;;;5037224;28;20513;-79
2021/05/25 04:21:34;;;;;;;4.18;2.80;;;10.00;99.90;;;;;;5036113;28;20052;-79
2021/05/25 04:24:01;;;;;;;2.38;2.10;;;10.00;99.90;;;;;;5035309;28;20136;-79
2021/05/25 04:26:27;;;;;;;2.65;1.73;;;9.90;99.90;;;;;;5036544;28;20128;-79
2021/05/25 04:28:54;;;;;;;3.85;2.08;;;9.90;99.90;;;;;;5037321;28;20060;-79
2021/05/25 04:31:21;;;;;;;2.78;1.90;;;9.90;99.90;;;;;;5037915;28;20139;-79
2021/05/25 04:33:47;;;;;;;2.90;1.92;;;9.90;99.90;;;;;;5037959;28;20085;-79
2021/05/25 04:36:16;;;;;;;1.60;1.48;;;9.90;99.90;;;;;;5039570;28;20136;-79
2021/05/25 04:38:42;;;;;;;2.92;1.92;;;9.90;99.90;;;;;;5038705;28;20188;-78
2021/05/25 04:41:09;;;;;;;1.60;1.50;;;9.90;99.90;;;;;;5036358;28;20376;-80
2021/05/25 04:43:35;;;;;;;2.45;1.92;;;10.10;99.90;;;;;;5035478;28;20216;-80
2021/05/25 04:46:02;;;;;;;1.73;1.55;;;10.20;99.90;;;;;;5038439;28;20417;-82
2021/05/25 04:48:29;;;;;;;4.63;1.85;;;10.40;99.90;;;;;;5040897;28;20402;-81
2021/05/25 04:50:56;;;;;;;2.65;1.85;;;10.40;99.90;;;;;;5042680;28;20049;-81
2021/05/25 04:53:22;;;;;;;2.13;1.58;;;10.40;99.90;;;;;;5041643;28;20501;-81
2021/05/25 04:55:50;;;;;;;4.32;2.05;;;10.50;99.90;;;;;;5042544;28;20056;-82
2021/05/25 04:58:17;;;;;;;2.78;1.55;;;10.60;99.90;;;;;;5042711;28;20050;-82
2021/05/25 05:00:44;;;;;;;4.15;2.20;;;10.70;99.90;;;;;;5038248;28;20096;-81
2021/05/25 05:03:11;;;;;;;2.90;1.95;;;10.70;99.90;;;;;;5040185;28;20057;-81
2021/05/25 05:05:40;;;;;;;6.10;1.85;;;10.70;99.90;;;;;;5041146;28;20076;-79
2021/05/25 05:08:14;;;;;;;4.65;2.00;;;10.70;99.90;;;;;;5040329;28;20132;-81
2021/05/25 05:14:39;;;;;;;1.60;1.50;;;10.40;99.90;;;;;;4999593;28;20082;-80
2021/05/25 05:20:44;;;;;;;1.58;1.45;;;10.40;99.90;;;;;;4917717;28;20057;-80
2021/05/25 05:27:42;;;;;;;2.58;1.73;;;10.20;99.90;;;;;;4944743;28;20065;-81
2021/05/25 05:50:58;;;;;;;4.22;2.20;;;10.20;99.90;;;;;;4825005;29;20104;-81
2021/05/25 05:56:47;;;;;;;4.57;2.50;;;10.10;99.90;;;;;;5004838;28;20131;-81
2021/05/25 05:59:14;;;;;;;5.13;2.47;;;10.10;99.90;;;;;;5055221;23;20521;-81
2021/05/25 06:01:40;;;;;;;4.40;2.55;;;10.10;99.90;;;;;;5043805;28;20060;-84
2021/05/25 06:04:07;;;;;;;4.05;2.70;;;10.10;99.90;;;;;;5044701;28;20073;-83
2021/05/25 06:06:33;;;;;;;3.97;2.20;;;10.10;99.90;;;;;;5043418;28;20124;-84
2021/05/25 06:09:01;;;;;;;2.55;2.10;;;10.10;99.90;;;;;;5042333;28;20465;-83
2021/05/25 06:11:27;;;;;;;1.95;1.73;;;10.10;99.90;;;;;;5044677;28;20060;-83
2021/05/25 06:13:54;;;;;;;1.55;1.45;;;10.20;99.90;;;;;;5046287;28;20109;-82
2021/05/25 06:16:20;;;;;;;1.65;1.48;;;10.30;99.90;;;;;;5046272;28;20188;-83
2021/05/25 06:18:49;;;;;;;4.63;1.42;;;10.40;99.90;;;;;;5047637;28;20050;-83
2021/05/25 06:21:17;;;;;;;1.85;1.52;;;10.50;99.90;;;;;;5052704;28;20088;-82
2021/05/25 06:23:44;;;;;;;3.10;2.30;;;10.60;99.90;;;;;;5050031;28;20045;-83
2021/05/25 06:26:11;;;;;;;1.52;1.25;;;10.60;99.90;;;;;;5043568;28;20148;-82
2021/05/25 06:28:37;;;;;;;2.75;1.83;;;10.60;99.90;;;;;;5043780;28;20116;-82
2021/05/25 06:31:04;;;;;;;1.70;1.60;;;10.50;99.90;;;;;;5048839;28;20084;-82
2021/05/25 06:33:30;;;;;;;1.50;1.27;;;10.50;99.90;;;;;;5044604;28;20072;-82
2021/05/25 06:35:56;;;;;;;1.50;1.40;;;10.50;99.90;;;;;;5041565;28;20060;-81
2021/05/25 06:38:23;;;;;;;1.90;1.80;;;10.40;99.90;;;;;;5040341;28;20136;-81
2021/05/25 06:40:49;;;;;;;3.03;1.85;;;10.40;99.90;;;;;;5041419;28;20502;-82
2021/05/25 06:43:17;;;;;;;1.50;1.38;;;10.30;99.90;;;;;;5040473;28;20454;-82
2021/05/25 06:45:43;;;;;;;2.97;1.63;;;10.30;99.90;;;;;;5044961;28;20081;-82
2021/05/25 06:48:09;;;;;;;2.35;2.15;;;10.40;99.90;;;;;;5044982;28;20104;-81
2021/05/25 06:50:37;;;;;;;3.55;2.20;;;10.50;99.90;;;;;;5056933;28;20050;-81
2021/05/25 06:53:03;;;;;;;3.38;2.85;;;10.60;99.90;;;;;;5048588;28;20046;-82
2021/05/25 06:55:31;;;;;;;3.92;2.50;;;10.50;99.90;;;;;;5042943;28;20050;-82
2021/05/25 06:57:57;;;;;;;2.20;2.00;;;10.60;99.90;;;;;;5045857;28;20049;-81
2021/05/25 07:00:25;;;;;;;4.38;3.00;;;10.60;99.90;;;;;;5045771;28;20084;-81
2021/05/25 07:02:51;;;;;;;2.42;2.22;;;10.60;99.90;;;;;;5044065;28;20517;-82
2021/05/25 07:05:18;;;;;;;5.10;2.90;;;10.70;99.90;;;;;;5041431;28;20045;-81
2021/05/25 07:07:44;;;;;;;5.57;2.25;;;10.80;99.90;;;;;;5042407;28;20085;-81
2021/05/25 07:10:11;;;;;;;4.50;2.35;;;10.80;99.90;;;;;;5044827;28;20125;-82
2021/05/25 07:12:38;;;;;;;6.32;2.55;;;10.80;99.90;;;;;;5041626;28;20548;-82
2021/05/25 07:15:06;;;;;;;3.03;1.98;;;10.70;99.90;;;;;;5046040;28;20128;-81
2021/05/25 07:17:33;;;;;;;2.80;1.52;;;10.50;99.90;;;;;;5048341;28;20482;-79
2021/05/25 07:20:00;;;;;;;1.73;1.33;;;10.10;99.90;;;;;;5048360;28;20073;-80
2021/05/25 07:22:26;;;;;;;3.00;2.03;;;9.90;99.90;;;;;;5045906;28;20049;-82
2021/05/25 07:24:52;;;;;;;2.47;1.50;;;9.70;99.90;;;;;;5042353;28;20463;-81
2021/05/25 07:27:19;;;;;;;1.63;1.33;;;9.60;99.90;;;;;;5040067;28;20049;-80
2021/05/25 07:29:46;;;;;;;2.92;1.58;;;9.40;99.90;;;;;;5041666;28;20049;-81
2021/05/25 07:32:12;;;;;;;2.30;1.73;;;9.20;99.90;;;;;;5039722;28;20132;-83
2021/05/25 07:34:39;;;;;;;1.88;1.60;;;9.10;99.90;;;;;;5039061;28;20057;-80
2021/05/25 07:37:06;;;;;;;1.25;1.20;;;9.10;99.90;;;;;;5039475;28;20144;-80
2021/05/25 07:39:32;;;;;;;1.55;1.45;;;9.00;99.90;;;;;;5039322;28;20084;-81
2021/05/25 07:42:00;;;;;;;1.50;1.35;;;9.10;99.90;;;;;;5039232;28;20049;-81
2021/05/25 07:44:26;;;;;;;2.53;1.35;;;9.20;99.90;;;;;;5038423;28;20056;-81
2021/05/25 07:46:53;;;;;;;1.75;1.38;;;9.40;99.90;;;;;;5038268;28;20073;-82
2021/05/25 07:49:19;;;;;;;3.75;2.10;;;9.60;99.90;;;;;;5036299;28;20053;-82
2021/05/25 07:51:46;;;;;;;1.60;1.50;;;9.90;99.90;;;;;;5037320;28;20441;-82
2021/05/25 07:54:13;;;;;;;1.45;1.35;;;10.10;99.90;;;;;;5034235;28;20144;-81
2021/05/25 07:56:39;;;;;;;1.70;1.38;;;10.60;99.90;;;;;;5029367;28;20045;-80
2021/05/25 07:59:05;;;;;;;4.25;1.98;;;11.30;99.90;;;;;;5037298;28;20087;-81
2021/05/25 08:01:32;;;;;;;1.73;1.63;;;11.80;99.90;;;;;;5038601;28;20113;-81
2021/05/25 08:03:58;;;;;;;4.68;1.90;;;12.50;99.90;;;;;;5039972;28;20053;-83
2021/05/25 08:06:25;;;;;;;3.92;2.08;;;13.50;99.90;;;;;;5038339;28;20108;-81
2021/05/25 08:08:52;;;;;;;5.03;2.30;;;14.20;99.90;;;;;;5039225;28;20099;-83
2021/05/25 08:11:18;;;;;;;3.13;2.75;;;14.50;99.90;;;;;;5051272;28;20072;-81
2021/05/25 08:13:45;;;;;;;2.35;2.15;;;14.40;99.90;;;;;;5044328;28;20080;-81
2021/05/25 08:16:14;;;;;;;2.75;2.42;;;14.20;99.90;;;;;;5045794;28;20049;-80
2021/05/25 08:19:01;;;;;;;2.28;2.08;;;14.00;99.90;;;;;;5053254;28;20045;-81
2021/05/25 08:21:28;;;;;;;3.83;2.70;;;14.00;99.90;;;;;;5028725;28;20583;-82
2021/05/25 08:23:57;;;;;;;4.40;2.47;;;14.20;99.90;;;;;;5047302;28;20053;-86
2021/05/25 08:26:26;;;;;;;2.97;2.60;;;14.10;99.90;;;;;;5051626;28;20047;-83
2021/05/25 08:28:55;;;;;;;5.00;2.35;;;13.90;99.90;;;;;;5057387;28;20053;-86
2021/05/25 08:31:22;;;;;;;2.65;1.70;;;13.60;99.90;;;;;;5036850;28;20104;-82
2021/05/25 08:33:56;;;;;;;3.25;1.92;;;13.20;99.90;;;;;;5036087;28;20413;-82
2021/05/25 08:36:23;;;;;;;2.20;2.00;;;12.90;99.90;;;;;;5049659;28;20080;-84
2021/05/25 08:38:49;;;;;;;4.57;2.20;;;12.50;99.90;;;;;;5042408;28;20388;-81
2021/05/25 08:41:18;;;;;;;2.60;2.40;;;12.10;99.90;;;;;;5037728;28;20044;-81
2021/05/25 08:43:48;;;;;;;2.58;2.00;;;11.70;99.90;;;;;;5029588;28;20228;-82
2021/05/25 08:46:14;;;;;;;3.30;2.53;;;11.80;99.90;;;;;;5036817;28;20050;-82
2021/05/25 08:48:42;;;;;;;3.63;2.28;;;12.10;99.90;;;;;;5038151;28;20049;-82
2021/05/25 08:51:09;;;;;;;2.47;2.00;;;12.50;99.90;;;;;;5055640;28;20087;-81
2021/05/25 08:53:36;;;;;;;2.33;1.95;;;12.60;99.90;;;;;;5038932;28;20135;-79
2021/05/25 08:56:05;;;;;;;2.22;1.83;;;12.40;99.90;;;;;;5040376;28;20112;-79
2021/05/25 08:58:33;;;;;;;3.42;2.25;;;12.10;99.90;;;;;;5043223;28;20053;-82
2021/05/25 09:00:59;;;;;;;4.05;2.60;;;11.90;99.90;;;;;;5052987;28;20049;-82
2021/05/25 09:03:26;;;;;;;2.35;2.08;;;11.90;99.90;;;;;;5044109;28;20045;-84
2021/05/25 09:05:55;;;;;;;4.30;2.60;;;11.90;99.90;;;;;;5060042;28;20044;-82
2021/05/25 09:08:24;;;;;;;3.42;2.60;;;12.00;99.90;;;;;;5051024;28;20053;-81
2021/05/25 09:14:13;;;;;;;3.65;2.40;;;12.30;99.90;;;;;;5035158;28;20049;-79
2021/05/25 09:16:41;;;;;;;1.65;1.55;;;12.60;99.90;;;;;;5030669;28;20433;-81
2021/05/25 09:19:08;;;;;;;2.38;1.92;;;12.90;99.90;;;;;;5026746;28;20054;-82
2021/05/25 09:21:42;;;;;;;1.95;1.65;;;13.00;99.90;;;;;;5019349;28;20690;-77
2021/05/25 09:24:11;;;;;;;1.73;1.63;;;12.90;99.90;;;;;;5041907;28;20516;-77
2021/05/25 09:26:42;;;;;;;3.13;2.55;;;12.70;99.90;;;;;;5039264;28;20038;-80
2021/05/25 09:29:20;;;;;;;3.30;2.60;;;12.60;99.90;;;;;;5031131;28;20116;-81
2021/05/25 09:32:08;;;;;;;;;;;;;;;;;;;;;
2021/05/25 09:34:35;;;;;;;4.85;2.40;;;12.80;99.90;;;;;;5039225;28;20148;-80
2021/05/25 09:37:06;;;;;;;3.65;2.55;;;12.90;99.90;;;;;;5036293;28;20061;-79
2021/05/25 09:39:49;;;;;;;2.90;2.60;;;12.90;99.90;;;;;;5033328;28;20135;-80
2021/05/25 09:42:19;;;;;;;3.85;2.75;;;12.80;99.90;;;;;;5042604;28;20053;-80
2021/05/25 09:44:59;;;;;;;2.75;2.30;;;12.50;99.90;;;;;;5032289;28;20056;-81
2021/05/25 09:47:34;;;;;;;5.13;2.70;;;12.50;99.90;;;;;;5030489;28;20057;-82
2021/05/25 09:50:02;;;;;;;2.80;2.55;;;12.40;99.90;;;;;;5037271;28;20073;-82
2021/05/25 09:52:28;;;;;;;7.38;3.25;;;12.30;99.90;;;;;;5035203;28;20049;-81
2021/05/25 09:55:09;;;;;;;6.13;3.55;;;12.20;99.90;;;;;;5049373;28;20045;-83
2021/05/25 09:57:46;;;;;;;6.35;4.00;;;11.90;99.90;;;;;;5029499;28;20061;-81
2021/05/25 10:00:34;;;;;;;4.20;3.78;;;11.60;99.90;;;;;;5025061;28;20088;-80
2021/05/25 10:03:13;;;;;;;5.18;4.00;;;11.40;99.90;;;;;;5022335;28;20053;-80
2021/05/25 10:05:43;;;;;;;5.78;4.32;;;11.40;99.90;;;;;;5026298;28;20046;-81
2021/05/25 10:08:10;;;;;;;6.25;4.72;;;11.30;99.90;;;;;;5040085;28;20084;-78
2021/05/25 10:10:41;;;;;;;8.18;5.30;;;11.20;99.90;;;;;;5056437;28;20045;-80
2021/05/25 10:13:18;;;;;;;8.05;5.93;;;11.10;99.90;;;;;;5054930;28;20119;-80
2021/05/25 10:15:47;;;;;;;8.73;6.07;;;11.10;99.90;;;;;;5040993;28;20140;-81
2021/05/25 10:18:35;;;;;;;8.95;5.75;;;11.10;99.90;;;;;;5043158;28;20509;-82
2021/05/25 10:21:04;;;;;;;9.05;5.35;;;11.30;99.90;;;;;;5043862;28;20064;-81
2021/05/25 10:23:45;;;;;;;8.27;5.50;;;11.20;99.90;;;;;;5031491;28;20052;-81
2021/05/25 10:26:18;;;;;;;6.63;5.32;;;11.30;99.90;;;;;;5046988;28;20600;-81
2021/05/25 10:28:54;;;;;;;6.80;5.07;;;11.50;99.90;;;;;;5041575;28;20080;-81
2021/05/25 10:32:05;;;;;;;7.53;4.78;;;11.80;99.90;;;;;;5041131;28;20068;-80
2021/05/25 10:34:50;;;;;;;6.53;4.50;;;12.00;99.90;;;;;;5040478;28;20049;-81
2021/05/25 10:37:19;;;;;;;7.03;4.30;;;12.00;99.90;;;;;;5036977;28;20290;-80
2021/05/25 10:39:46;;;;;;;5.10;4.30;;;12.10;99.90;;;;;;5042878;28;20065;-81
2021/05/25 10:42:29;;;;;;;4.68;3.80;;;12.10;99.90;;;;;;5058956;28;20045;-81
2021/05/25 10:44:57;;;;;;;8.48;3.78;;;12.30;99.90;;;;;;5047599;28;20060;-80
2021/05/25 10:47:34;;;;;;;5.65;3.92;;;12.30;99.90;;;;;;5048034;28;20041;-81
2021/05/25 10:50:13;;;;;;;7.25;4.50;;;12.20;99.90;;;;;;5057126;28;20056;-80
2021/05/25 10:53:05;;;;;;;5.13;3.88;;;11.90;99.90;;;;;;5062269;28;20060;-80
2021/05/25 10:55:35;;;;;;;5.78;4.68;;;11.70;99.90;;;;;;5038327;28;20041;-80
2021/05/25 10:58:36;;;;;;;5.55;4.28;;;11.50;99.90;;;;;;5054443;28;20381;-80
2021/05/25 11:01:06;;;;;;;6.30;3.88;;;11.40;99.90;;;;;;5044895;28;20069;-79
2021/05/25 11:03:33;;;;;;;6.45;4.72;;;11.30;99.90;;;;;;5031809;28;20049;-77
2021/05/25 11:06:00;;;;;;;7.47;4.70;;;11.30;99.90;;;;;;5042389;28;20065;-81
2021/05/25 11:08:36;;;;;;;7.68;3.72;;;11.20;99.90;;;;;;5043429;28;20136;-80
2021/05/25 11:11:27;;;;;;;8.18;4.53;;;11.30;99.90;;;;;;5045955;28;20076;-80
2021/05/25 11:13:53;;;;;;;6.38;4.50;;;11.50;99.90;;;;;;5031414;28;20255;-82
2021/05/25 11:16:32;;;;;;;8.18;4.60;;;11.90;99.90;;;;;;5045805;28;20049;-80
2021/05/25 11:19:31;;;;;;;7.57;4.70;;;12.20;99.90;;;;;;5040984;28;20046;-82
2021/05/25 11:24:43;;;;;;;7.88;5.07;;;13.00;99.90;;;;;;5035375;28;20049;-81
2021/05/25 11:27:12;;;;;;;10.75;5.38;;;13.30;99.90;;;;;;5046306;28;20088;-79
2021/05/25 11:29:48;;;;;;;7.07;5.55;;;13.50;99.90;;;;;;5025737;28;20049;-80
2021/05/25 11:32:16;;;;;;;9.40;5.35;;;13.70;99.90;;;;;;5040844;28;20053;-82
2021/05/25 11:34:44;;;;;;;7.88;6.03;;;14.00;99.90;;;;;;5042017;28;20129;-80
2021/05/25 11:37:13;;;;;;;8.68;5.43;;;14.40;99.90;;;;;;5042260;28;20056;-80
2021/05/25 11:39:40;;;;;;;6.57;4.65;;;14.70;99.90;;;;;;5042609;28;20061;-81
2021/05/25 11:42:09;;;;;;;7.93;4.40;;;15.00;99.90;;;;;;5042535;28;20084;-80
2021/05/25 11:44:38;;;;;;;8.95;5.13;;;15.10;99.90;;;;;;5045397;28;20049;-81
2021/05/25 11:47:06;;;;;;;7.68;4.68;;;15.20;99.90;;;;;;5043787;28;20081;-81
2021/05/25 11:49:35;;;;;;;9.23;5.50;;;15.20;99.90;;;;;;5042612;28;20053;-80
2021/05/25 11:52:19;;;;;;;9.13;5.20;;;15.30;99.90;;;;;;5044325;28;20509;-80
2021/05/25 11:54:46;;;;;;;5.97;4.90;;;15.40;99.90;;;;;;5030494;28;20064;-80
2021/05/25 11:57:30;;;;;;;9.63;4.70;;;15.40;99.90;;;;;;5042822;28;20095;-81
2021/05/25 12:02:27;;;;;;;7.28;4.70;;;15.30;99.90;;;;;;5010075;28;20053;-77
2021/05/25 12:05:09;;;;;;;7.63;4.65;;;15.30;99.90;;;;;;5012068;28;20136;-78
2021/05/25 12:07:37;;;;;;;7.72;4.65;;;15.30;99.90;;;;;;5012499;28;20461;-78
2021/05/25 12:10:12;;;;;;;9.52;4.00;;;15.30;99.90;;;;;;5012448;28;20054;-78
2021/05/25 12:12:41;;;;;;;6.03;3.80;;;15.20;99.90;;;;;;5013379;28;20049;-78
2021/05/25 12:15:20;;;;;;;6.65;3.60;;;15.20;99.90;;;;;;5011428;28;20521;-77
2021/05/25 12:17:50;;;;;;;9.25;2.67;;;15.10;99.90;;;;;;5009568;28;20070;-77
2021/05/25 12:20:18;;;;;;;7.90;3.30;;;13.50;99.90;;;;;;5010121;28;20116;-77
2021/05/25 12:22:46;;;;;;;9.52;3.20;;;12.50;99.90;;;;;;5010138;28;20133;-75
2021/05/25 12:25:31;;;;;;;9.27;3.03;;;11.50;99.90;;;;;;5009464;28;20054;-76
2021/05/25 12:28:11;;;;;;;3.70;3.33;;;10.80;99.90;;;;;;5012385;28;20091;-78
2021/05/25 12:30:39;;;;;;;5.22;3.25;;;10.40;99.90;;;;;;5011100;28;20054;-77
2021/05/25 12:33:07;;;;;;;5.60;3.50;;;10.20;99.90;;;;;;5011994;28;20050;-78
2021/05/25 12:35:37;;;;;;;4.78;3.22;;;10.10;99.90;;;;;;5012752;28;20046;-78
2021/05/25 12:38:09;;;;;;;9.25;3.60;;;10.10;99.90;;;;;;5012960;28;20418;-79
2021/05/25 12:40:39;;;;;;;5.43;3.75;;;9.90;99.90;;;;;;5011596;28;20054;-78
2021/05/25 12:43:18;;;;;;;6.82;3.70;;;9.90;99.90;;;;;;5013071;28;20128;-77
2021/05/25 12:45:46;;;;;;;5.20;3.22;;;9.80;99.90;;;;;;5012184;28;20052;-77
2021/05/25 12:48:14;;;;;;;3.60;3.17;;;9.70;99.90;;;;;;5011647;28;20530;-77
2021/05/25 12:50:41;;;;;;;6.47;2.78;;;9.80;99.90;;;;;;5012302;28;20132;-79
2021/05/25 12:53:12;;;;;;;5.20;2.55;;;9.90;99.90;;;;;;5012038;28;20049;-77
2021/05/25 12:55:56;;;;;;;3.08;2.25;;;10.00;99.90;;;;;;5012549;28;20124;-77
2021/05/25 12:58:39;;;;;;;2.85;2.20;;;10.20;99.90;;;;;;5012608;28;20417;-77
2021/05/25 13:01:27;;;;;;;3.17;2.45;;;10.40;99.90;;;;;;5012969;28;20094;-77
2021/05/25 13:03:56;;;;;;;3.35;2.03;;;10.60;99.90;;;;;;5013339;28;20140;-77
2021/05/25 13:06:26;;;;;;;3.13;2.33;;;10.70;99.90;;;;;;5012575;28;20580;-77
2021/05/25 13:09:04;;;;;;;3.70;2.13;;;10.70;99.90;;;;;;5011494;28;20085;-77
2021/05/25 13:11:33;;;;;;;2.80;2.47;;;10.60;99.90;;;;;;5018224;28;20362;-78
2021/05/25 13:14:01;;;;;;;3.53;2.42;;;10.70;99.90;;;;;;5017157;28;20060;-78
2021/05/25 13:16:29;;;;;;;3.42;2.00;;;10.90;99.90;;;;;;5016104;28;20058;-78
2021/05/25 13:18:56;;;;;;;4.45;1.95;;;11.00;99.90;;;;;;5014794;28;20438;-77
2021/05/25 13:21:26;;;;;;;3.40;2.75;;;11.20;99.90;;;;;;5013988;28;20080;-77
2021/05/25 13:23:54;;;;;;;3.83;2.42;;;11.30;99.90;;;;;;5015266;28;20054;-77
2021/05/25 13:26:34;;;;;;;2.72;2.20;;;11.50;99.90;;;;;;5011643;28;20074;-76
2021/05/25 13:29:02;;;;;;;4.47;2.30;;;11.70;99.90;;;;;;5011079;28;20470;-77
2021/05/25 13:31:31;;;;;;;4.20;2.50;;;11.80;99.90;;;;;;5013572;28;20133;-79
2021/05/25 13:33:59;;;;;;;3.35;2.17;;;12.00;99.90;;;;;;5014085;28;20053;-79
2021/05/25 13:36:31;;;;;;;4.20;2.30;;;12.10;99.90;;;;;;5015853;28;20053;-77
2021/05/25 13:38:57;;;;;;;4.70;2.40;;;12.10;99.90;;;;;;5013725;28;20050;-77
2021/05/25 13:41:30;;;;;;;4.63;2.50;;;12.10;99.90;;;;;;5013979;28;20132;-77
2021/05/25 13:43:56;;;;;;;3.60;2.75;;;12.00;99.90;;;;;;5013599;28;20129;-77
2021/05/25 13:46:23;;;;;;;4.07;2.50;;;11.90;99.90;;;;;;5013448;28;20143;-77